Mount Tremper, NY (12457)

11:05 AM EDT on May 05, 2015 (GMT -0400)
Willow, NY | | Change Station
CLOSE
Current Station
Personal Weather Station
Location: Willow, NY
Elevation: 1033 ft
Nearby Weather Stations

Elev 1033 ft 42.07 °N, 74.22 °W | Updated 6 minutes ago

Partly Cloudy
Partly Cloudy
72.3 °F
Feels Like 77 °F
N
1.0
Wind Variable Wind from SE
Gusts 9.0 mph

Today
High -- | Low -- °F
--% Chance of Precip.
Yesterday
High -- | Low -- °F
Precip. -- in
5:48 AM 8:00 PM
Full, 98% visible
Pressure 30.20 in
Visibility 10.0 miles
Clouds Clear
Heat Index 77 °F
Dew Point 47 °F
Humidity 40%
Rainfall 0.00 in
Snow Depth Not available.
UV 8 out of 12
Pollen 7.00 out of 12
Air Quality Not available.
Flu Activity Widespread
METAR KPOU 051453Z 33005KT 10SM CLR 24/11 A3021 RMK AO2 SLP227 T02390111 50006

More Conditions Fewer Conditions

Pressure 30.20 in
Visibility 10.0 miles
Clouds Clear
Heat Index 77 °F
Dew Point 47 °F
Humidity 40%
Rainfall 0.00 in
Snow Depth Not available.
UV 8 out of 12
Pollen 7.00 out of 12
Air Quality Not available.
Flu Activity Widespread
METAR KPOU 051453Z 33005KT 10SM CLR 24/11 A3021 RMK AO2 SLP227 T02390111 50006

More Conditions Fewer Conditions

10-Day Weather Forecast

Almanac

Astronomy

May. 05, 2015 Rise Set
Actual Time
Civil Twilight
Nautical Twilight
Astronomical Twilight
Moon
Length of Visible Light
Length of Day
Tomorrow will be .
, % of the Moon is Illuminated

Today's Extremes

State Highs State Lows

Community

WunderPhotos

Upload Photos

1,818,912 photos uploaded!

WunderBlogs® & News

Nearby

Air Quality

  Air Quality AQ Index Pollutant
Not available.

Snow Depth

Station Depth Elevation

Earthquake Activity

City Distance Mag. Time & Date
Minimum magnitude displayed is 2.5.

Coastal Water Temperatures

Place Temperature

Stations

Nearby Weather Stations

Station Location Temp. Windchill Dew Point Humidity Wind Precip. Elev Updated Type